Time;durP1;ratioP1;P1;durP2;ratioP2;P2;SDS_P1;SDS_P2;PMS_P1;PMS_P2;Temp;Humidity;BMP_temperature;BMP_pressure;BME280_temperature;BME280_humidity;BME280_pressure;Samples;Min_cycle;Max_cycle;Signal;HPM_P1;HPM_P2
2022/09/10 00:00:31;;;;;;;20.03;8.53;;;;;;;-145.18;100.00;46636.94;4994456;28;20045;-72
2022/09/10 00:02:56;;;;;;;20.57;9.43;;;;;;;-145.18;100.00;46642.81;4994058;28;20545;-73
2022/09/10 00:05:21;;;;;;;22.70;8.33;;;;;;;-145.18;100.00;46642.81;4994319;28;20062;-73
2022/09/10 00:07:47;;;;;;;20.67;8.50;;;;;;;-145.18;100.00;46638.91;4994021;28;20513;-73
2022/09/10 00:10:12;;;;;;;21.43;9.17;;;;;;;-145.18;100.00;46638.91;4994154;28;20108;-73
2022/09/10 00:12:38;;;;;;;24.70;8.97;;;;;;;-145.18;100.00;46638.91;4993912;28;20047;-73
2022/09/10 00:15:04;;;;;;;23.57;8.70;;;;;;;-145.18;100.00;46660.41;4994348;28;20475;-73
2022/09/10 00:17:31;;;;;;;25.43;8.80;;;;;;;-145.18;100.00;46640.88;4993673;28;20438;-73
2022/09/10 00:19:58;;;;;;;22.37;8.77;;;;;;;-145.18;100.00;46640.88;4993899;28;20034;-73
2022/09/10 00:22:24;;;;;;;22.37;9.33;;;;;;;-145.18;100.00;46638.91;4993710;28;20039;-73
2022/09/10 00:24:54;;;;;;;19.27;8.77;;;;;;;-145.18;100.00;46640.88;4994282;28;20049;-73
2022/09/10 00:27:20;;;;;;;19.07;9.27;;;;;;;-145.18;100.00;46640.88;4993626;28;20036;-74
2022/09/10 00:29:45;;;;;;;25.77;9.43;;;;;;;-145.18;100.00;46638.91;4994010;28;20042;-73
2022/09/10 00:32:11;;;;;;;25.83;10.47;;;;;;;-145.18;100.00;46660.41;4992834;28;20402;-73
2022/09/10 00:34:36;;;;;;;23.00;10.87;;;;;;;-145.18;100.00;46638.91;4976408;28;20046;-73
2022/09/10 00:37:01;;;;;;;21.93;10.63;;;;;;;-145.18;100.00;46676.03;4993502;28;20041;-72
2022/09/10 00:39:27;;;;;;;27.07;10.77;;;;;;;-145.18;100.00;46660.41;4993653;28;20410;-73
2022/09/10 00:41:54;;;;;;;24.70;11.23;;;;;;;-145.18;100.00;46636.94;4993329;28;20038;-72
2022/09/10 00:44:40;;;;;;;25.30;11.23;;;;;;;-145.18;100.00;46636.94;4993434;28;20064;-73
2022/09/10 00:47:24;;;;;;;22.10;10.93;;;;;;;-145.18;100.00;46660.41;4993251;28;20065;-72
2022/09/10 00:50:29;;;;;;;20.60;11.63;;;;;;;-145.18;100.00;46636.94;4976318;28;20026;-74
2022/09/10 00:52:59;;;;;;;26.70;13.40;;;;;;;-145.18;100.00;46636.94;4989901;28;20046;-73
2022/09/10 00:55:26;;;;;;;23.63;11.57;;;;;;;-145.18;100.00;46660.41;4993251;28;20120;-73
2022/09/10 00:57:55;;;;;;;23.43;12.63;;;;;;;-145.18;100.00;46660.41;4993353;28;20039;-74
2022/09/10 01:00:21;;;;;;;23.33;12.63;;;;;;;-145.18;100.00;46635.00;4993403;28;20049;-75
2022/09/10 01:02:47;;;;;;;27.77;12.80;;;;;;;-145.18;100.00;46635.00;4992809;28;20033;-74
2022/09/10 01:05:14;;;;;;;20.67;12.63;;;;;;;-145.18;100.00;46660.41;4993389;28;20046;-74
2022/09/10 01:07:41;;;;;;;28.00;13.50;;;;;;;-145.18;100.00;46633.06;4992921;28;20054;-73
2022/09/10 01:10:28;;;;;;;26.13;14.00;;;;;;;-145.18;100.00;46635.00;4993413;28;20440;-74
2022/09/10 01:13:24;;;;;;;25.27;14.63;;;;;;;-145.18;100.00;46635.00;4992858;28;20077;-74
2022/09/10 01:16:22;;;;;;;28.42;15.02;;;;;;;-145.18;100.00;46635.00;4993144;28;20030;-73
2022/09/10 01:18:59;;;;;;;24.47;14.13;;;;;;;-145.18;100.00;46633.06;4975825;28;20041;-75
2022/09/10 01:21:31;;;;;;;25.53;15.20;;;;;;;-145.18;100.00;46660.41;4992594;28;20462;-75
2022/09/10 01:24:14;;;;;;;29.47;16.33;;;;;;;-145.18;100.00;46631.09;4993268;28;20072;-75
2022/09/10 01:26:58;;;;;;;27.13;15.33;;;;;;;-145.18;100.00;46631.09;4992992;28;20026;-75
2022/09/10 01:29:47;;;;;;;25.27;15.23;;;;;;;-145.18;100.00;46635.00;4992781;28;20133;-75
2022/09/10 01:32:19;;;;;;;29.13;16.40;;;;;;;-145.18;100.00;46631.09;4992528;28;20030;-75
2022/09/10 01:34:55;;;;;;;28.17;17.77;;;;;;;-145.18;100.00;46633.06;4992956;28;20038;-76
2022/09/10 01:37:29;;;;;;;28.48;16.17;;;;;;;-145.18;100.00;46629.13;4992217;28;20038;-75
2022/09/10 01:39:57;;;;;;;34.30;18.30;;;;;;;-145.18;100.00;46631.09;4993117;28;20030;-76
2022/09/10 01:42:27;;;;;;;33.37;19.37;;;;;;;-145.18;100.00;46633.06;4991933;28;20034;-75
2022/09/10 01:44:54;;;;;;;30.97;19.30;;;;;;;-145.18;100.00;46660.41;4974432;28;20022;-74
2022/09/10 01:47:45;;;;;;;29.83;18.93;;;;;;;-145.18;100.00;46627.19;4992096;28;20061;-75
2022/09/10 01:50:21;;;;;;;31.83;18.90;;;;;;;-145.18;100.00;46631.09;4992706;28;20018;-74
2022/09/10 01:52:57;;;;;;;36.03;20.93;;;;;;;-145.18;100.00;46629.13;4992247;28;20026;-74
2022/09/10 01:55:26;;;;;;;;;;;;;;;-145.18;100.00;46629.13;4992539;28;20034;-74
2022/09/10 01:57:57;;;;;;;29.67;20.63;;;;;;;-145.18;100.00;46631.09;4992055;28;20431;-75
2022/09/10 02:03:04;;;;;;;29.08;21.10;;;;;;;-145.18;100.00;46627.19;5079133;23;20090;-77
2022/09/10 02:05:34;;;;;;;32.20;22.77;;;;;;;-145.18;100.00;46660.41;4901919;29;20043;-77
2022/09/10 02:08:04;;;;;;;38.30;25.40;;;;;;;-145.18;100.00;46627.19;4915116;29;20031;-78
2022/09/10 02:10:29;;;;;;;31.33;24.10;;;;;;;-145.18;100.00;46629.13;4915305;29;20102;-78
2022/09/10 02:12:55;;;;;;;35.03;25.77;;;;;;;-145.18;100.00;46629.13;4897710;29;20168;-77
2022/09/10 02:15:24;;;;;;;39.33;26.27;;;;;;;-145.18;100.00;46627.19;4915504;29;20484;-77
2022/09/10 02:17:52;;;;;;;37.20;26.50;;;;;;;-145.18;100.00;46633.06;4914811;29;20031;-78
2022/09/10 02:20:18;;;;;;;39.57;28.20;;;;;;;-145.18;100.00;46627.19;4915449;29;20039;-77
2022/09/10 02:22:54;;;;;;;45.40;29.40;;;;;;;-145.18;100.00;46627.19;4914550;29;20024;-78
2022/09/10 02:25:19;;;;;;;43.20;29.08;;;;;;;-145.18;100.00;46627.19;4915305;29;20443;-78
2022/09/10 02:27:45;;;;;;;43.43;28.57;;;;;;;-145.18;100.00;46660.41;4914478;29;20123;-78
2022/09/10 02:30:11;;;;;;;39.83;27.87;;;;;;;-145.18;100.00;46625.22;4914971;29;20036;-77
2022/09/10 02:32:36;;;;;;;43.03;29.97;;;;;;;-145.18;100.00;46623.28;4897480;29;20048;-77
2022/09/10 02:35:01;;;;;;;48.47;30.67;;;;;;;-145.18;100.00;46627.19;4915040;29;20040;-77
2022/09/10 02:37:27;;;;;;;43.77;30.37;;;;;;;-145.18;100.00;46625.22;4897662;29;20130;-78
2022/09/10 02:39:53;;;;;;;43.10;31.40;;;;;;;-145.18;100.00;46627.19;4914742;29;20176;-77
2022/09/10 02:42:18;;;;;;;43.97;31.33;;;;;;;-145.18;100.00;46623.28;4914436;29;20028;-77
2022/09/10 02:44:43;;;;;;;54.03;33.30;;;;;;;-145.18;100.00;46627.19;4914577;29;20040;-78
2022/09/10 02:47:09;;;;;;;48.20;31.50;;;;;;;-145.18;100.00;46623.28;4914528;29;20032;-78
2022/09/10 02:49:35;;;;;;;45.27;32.87;;;;;;;-145.18;100.00;46625.22;4914804;29;20050;-78
2022/09/10 02:52:03;;;;;;;43.87;32.00;;;;;;;-145.18;100.00;46623.28;4914442;29;20040;-77
2022/09/10 02:54:28;;;;;;;48.37;32.10;;;;;;;-145.18;100.00;46625.22;4914470;29;20024;-78
2022/09/10 02:56:55;;;;;;;43.70;30.67;;;;;;;-145.18;100.00;46660.41;4913990;29;20036;-77
2022/09/10 02:59:22;;;;;;;41.73;30.57;;;;;;;-145.18;100.00;46623.28;4914690;29;20028;-77
2022/09/10 03:01:47;;;;;;;41.47;30.40;;;;;;;-145.18;100.00;46658.44;4913922;29;20059;-77
2022/09/10 03:04:14;;;;;;;41.17;31.10;;;;;;;-145.18;100.00;46623.28;4914549;29;20036;-77
2022/09/10 03:06:39;;;;;;;49.30;31.23;;;;;;;-145.18;100.00;46660.41;4914134;29;20028;-76
2022/09/10 03:09:05;;;;;;;49.13;32.23;;;;;;;-145.18;100.00;46629.13;4914736;29;20401;-78
2022/09/10 03:11:30;;;;;;;46.47;32.07;;;;;;;-145.18;100.00;46660.41;4914645;29;20024;-77
2022/09/10 03:13:56;;;;;;;54.13;34.63;;;;;;;-145.18;100.00;46625.22;4913931;29;20059;-77
2022/09/10 03:16:22;;;;;;;48.47;33.87;;;;;;;-145.18;100.00;46660.41;4914595;29;20048;-78
2022/09/10 03:18:48;;;;;;;49.87;35.00;;;;;;;-145.18;100.00;46623.28;4913830;29;20440;-78
2022/09/10 03:21:19;;;;;;;58.70;37.80;;;;;;;-145.18;100.00;46660.41;4914702;29;20115;-78
2022/09/10 03:23:45;;;;;;;49.30;35.97;;;;;;;-145.18;100.00;46623.28;4913969;29;20056;-78
2022/09/10 03:26:13;;;;;;;54.87;37.20;;;;;;;-145.18;100.00;46660.41;4914342;29;20028;-77
2022/09/10 03:28:40;;;;;;;54.33;37.50;;;;;;;-145.18;100.00;46660.41;4914115;29;20389;-79
2022/09/10 03:31:07;;;;;;;54.10;36.93;;;;;;;-145.18;100.00;46623.28;4914340;29;20418;-78
2022/09/10 03:33:32;;;;;;;51.10;34.63;;;;;;;-145.18;100.00;46623.28;4914107;29;20032;-79
2022/09/10 03:35:58;;;;;;;48.37;34.90;;;;;;;-145.18;100.00;46621.31;4914248;29;20044;-79
2022/09/10 03:38:24;;;;;;;51.27;35.27;;;;;;;-145.18;100.00;46660.41;4914103;29;20163;-79
2022/09/10 03:40:51;;;;;;;43.80;29.30;;;;;;;-145.18;100.00;46623.28;4914118;29;20032;-76
2022/09/10 03:43:18;;;;;;;39.73;30.00;;;;;;;-145.18;100.00;46623.28;4913880;29;20504;-77
2022/09/10 03:45:44;;;;;;;48.63;33.67;;;;;;;-145.18;100.00;46660.41;4914201;29;20032;-77
2022/09/10 03:48:09;;;;;;;46.00;35.07;;;;;;;-145.18;100.00;46660.41;4913903;29;20032;-78
2022/09/10 03:50:35;;;;;;;54.50;34.70;;;;;;;-145.18;100.00;46656.50;4914460;29;20028;-79
2022/09/10 03:53:02;;;;;;;49.43;34.47;;;;;;;-145.18;100.00;46658.44;4913778;29;20033;-77
2022/09/10 03:55:29;;;;;;;49.67;32.87;;;;;;;-145.18;100.00;46660.41;4914204;29;20044;-78
2022/09/10 03:57:55;;;;;;;51.13;33.10;;;;;;;-145.18;100.00;46660.41;4913404;29;20704;-77
2022/09/10 04:00:20;;;;;;;48.90;34.60;;;;;;;-145.18;100.00;46660.41;4914452;29;20036;-79
2022/09/10 04:02:47;;;;;;;46.17;31.93;;;;;;;-145.18;100.00;46660.41;4913341;29;20058;-79
2022/09/10 04:05:12;;;;;;;56.87;34.43;;;;;;;-145.18;100.00;46660.41;4914210;29;20035;-77
2022/09/10 04:07:38;;;;;;;50.70;33.60;;;;;;;-145.18;100.00;46660.41;4914327;29;20573;-78
2022/09/10 04:10:03;;;;;;;51.10;32.63;;;;;;;-145.18;100.00;46660.41;4917411;29;20039;-79
2022/09/10 04:12:29;;;;;;;46.70;32.37;;;;;;;-145.18;100.00;46660.41;4917180;29;20032;-77
2022/09/10 04:14:54;;;;;;;50.47;32.57;;;;;;;-145.18;100.00;46660.41;4917513;29;20075;-77
2022/09/10 04:17:19;;;;;;;47.70;31.70;;;;;;;-145.18;100.00;46660.41;4900480;29;20040;-79
2022/09/10 04:19:45;;;;;;;47.13;30.37;;;;;;;-145.18;100.00;46660.41;4917549;29;20055;-80
2022/09/10 04:22:10;;;;;;;47.27;31.03;;;;;;;-145.18;100.00;46660.41;4917284;29;20115;-80
2022/09/10 04:24:35;;;;;;;46.47;30.37;;;;;;;-145.18;100.00;46658.44;4920936;29;20063;-79
2022/09/10 04:27:01;;;;;;;45.73;31.27;;;;;;;-145.18;100.00;46660.41;4925614;29;20040;-79
2022/09/10 04:29:27;;;;;;;49.53;31.10;;;;;;;-145.18;100.00;46658.44;4917053;29;20380;-79
2022/09/10 04:31:54;;;;;;;49.73;32.07;;;;;;;-145.18;100.00;46660.41;4912213;29;20504;-79
2022/09/10 04:34:19;;;;;;;52.37;33.60;;;;;;;-145.18;100.00;46660.41;4895692;29;20028;-80
2022/09/10 04:36:45;;;;;;;45.20;32.07;;;;;;;-145.18;100.00;46660.41;4909752;29;20091;-80
2022/09/10 04:39:10;;;;;;;51.37;33.07;;;;;;;-145.18;100.00;46660.41;4898658;29;20103;-80
2022/09/10 04:41:35;;;;;;;44.40;33.23;;;;;;;-145.18;100.00;46660.41;4900839;29;20039;-80
2022/09/10 04:44:01;;;;;;;48.07;33.57;;;;;;;-145.18;100.00;46660.41;4895730;29;20111;-80
2022/09/10 04:46:26;;;;;;;48.67;32.73;;;;;;;-145.18;100.00;46660.41;4908747;29;20052;-80
2022/09/10 04:48:52;;;;;;;50.03;33.37;;;;;;;-145.18;100.00;46660.41;4882682;29;20048;-80
2022/09/10 04:51:17;;;;;;;45.57;34.10;;;;;;;-145.18;100.00;46660.41;4910741;29;20438;-81
2022/09/10 04:53:44;;;;;;;48.30;34.93;;;;;;;-145.18;100.00;46660.41;4875773;29;20062;-80
2022/09/10 04:56:09;;;;;;;49.20;33.63;;;;;;;-145.18;100.00;46660.41;4917322;29;20050;-80
2022/09/10 04:58:35;;;;;;;44.03;33.37;;;;;;;-145.18;100.00;46660.41;4907983;29;20556;-81
2022/09/10 05:01:01;;;;;;;49.63;32.70;;;;;;;-145.18;100.00;46660.41;4894328;29;20036;-81
2022/09/10 05:03:26;;;;;;;42.60;32.73;;;;;;;-145.18;100.00;46660.41;4916311;29;20417;-81
2022/09/10 05:05:52;;;;;;;45.53;31.87;;;;;;;-145.18;100.00;46660.41;4916800;29;20041;-81
2022/09/10 05:08:17;;;;;;;43.37;32.43;;;;;;;-145.18;100.00;46660.41;4899175;29;20051;-80
2022/09/10 05:10:44;;;;;;;48.60;32.33;;;;;;;-145.18;100.00;46660.41;4916543;29;20553;-79
2022/09/10 05:13:09;;;;;;;46.20;32.13;;;;;;;-145.18;100.00;46660.41;4916113;29;20043;-80
2022/09/10 05:15:35;;;;;;;43.27;32.83;;;;;;;-145.18;100.00;46660.41;4916386;29;20048;-82
2022/09/10 05:18:00;;;;;;;41.30;30.77;;;;;;;-145.18;100.00;46627.19;4883495;29;20064;-81
2022/09/10 05:20:26;;;;;;;48.13;31.40;;;;;;;-145.18;100.00;46660.41;4916350;29;20115;-83
2022/09/10 05:22:53;;;;;;;52.73;31.10;;;;;;;-145.18;100.00;46660.41;4916287;29;20119;-82
2022/09/10 05:25:19;;;;;;;44.37;30.23;;;;;;;-145.18;100.00;46660.41;4919061;29;20059;-80
2022/09/10 05:27:45;;;;;;;45.30;31.63;;;;;;;-145.18;100.00;46660.41;4912701;29;20119;-78
2022/09/10 05:30:10;;;;;;;43.00;31.03;;;;;;;-145.18;100.00;46660.41;4915862;29;20123;-78
2022/09/10 05:32:37;;;;;;;44.03;29.73;;;;;;;-145.18;100.00;46660.41;4930724;29;20047;-80
2022/09/10 05:35:04;;;;;;;46.63;30.60;;;;;;;-145.18;100.00;46660.41;4934654;29;20515;-80
2022/09/10 05:37:30;;;;;;;43.53;30.40;;;;;;;-145.18;100.00;46625.22;4934618;29;20042;-78
2022/09/10 05:39:56;;;;;;;41.77;29.50;;;;;;;-145.18;100.00;46658.44;4917895;29;20563;-77
2022/09/10 05:42:21;;;;;;;42.77;28.27;;;;;;;-145.18;100.00;46660.41;4915613;29;20051;-78
2022/09/10 05:44:46;;;;;;;43.53;27.13;;;;;;;-145.18;100.00;46660.41;4915985;29;20118;-77
2022/09/10 05:47:12;;;;;;;36.77;25.50;;;;;;;-145.18;100.00;46660.41;4915577;29;20071;-77
2022/09/10 05:49:37;;;;;;;38.50;25.93;;;;;;;-145.18;100.00;46660.41;4915736;29;20058;-78
2022/09/10 05:52:03;;;;;;;39.03;27.17;;;;;;;-145.18;100.00;46625.22;4915701;29;20071;-78
2022/09/10 05:54:28;;;;;;;39.07;24.40;;;;;;;-145.18;100.00;46627.19;4915441;29;20047;-78
2022/09/10 05:56:53;;;;;;;33.40;22.77;;;;;;;-145.18;100.00;46660.41;4898234;29;20120;-79
2022/09/10 05:59:19;;;;;;;30.53;23.40;;;;;;;-145.18;100.00;46660.41;4888104;29;20064;-79
2022/09/10 06:01:44;;;;;;;33.27;23.57;;;;;;;-145.18;100.00;46660.41;4903700;29;20039;-79
2022/09/10 06:04:10;;;;;;;32.53;22.93;;;;;;;-145.18;100.00;46660.41;4896449;29;20037;-79
2022/09/10 06:06:36;;;;;;;33.40;24.50;;;;;;;-145.18;100.00;46660.41;4911896;29;20058;-79
2022/09/10 06:09:02;;;;;;;36.33;24.57;;;;;;;-145.18;100.00;46660.41;4912936;29;20040;-79
2022/09/10 06:11:27;;;;;;;33.47;24.80;;;;;;;-145.18;100.00;46660.41;4898396;29;20457;-79
2022/09/10 06:13:53;;;;;;;35.70;24.73;;;;;;;-145.18;100.00;46660.41;4914884;29;20115;-79
2022/09/10 06:16:18;;;;;;;35.73;22.57;;;;;;;-145.18;100.00;46660.41;4915095;29;20087;-79
2022/09/10 06:18:45;;;;;;;32.73;24.53;;;;;;;-145.18;100.00;46660.41;4915063;29;20068;-79
2022/09/10 06:21:11;;;;;;;28.23;22.73;;;;;;;-145.18;100.00;46625.22;4915621;29;20075;-79
2022/09/10 06:23:38;;;;;;;29.47;23.60;;;;;;;-145.18;100.00;46625.22;4914914;29;20036;-79
2022/09/10 06:26:24;;;;;;;30.83;23.03;;;;;;;-145.18;100.00;46627.19;4898190;29;20135;-79
2022/09/10 06:28:50;;;;;;;36.23;22.83;;;;;;;-145.18;100.00;46625.22;4913976;29;20100;-78
2022/09/10 06:31:18;;;;;;;29.23;22.57;;;;;;;-145.18;100.00;46627.19;4913632;29;20032;-79
2022/09/10 06:33:45;;;;;;;34.67;22.87;;;;;;;-145.18;100.00;46621.31;4914318;29;20036;-79
2022/09/10 06:36:12;;;;;;;28.60;22.33;;;;;;;-145.18;100.00;46629.13;4915333;29;20080;-78
2022/09/10 06:38:38;;;;;;;29.67;20.87;;;;;;;-145.18;100.00;46623.28;4914562;29;20060;-79
2022/09/10 06:41:06;;;;;;;25.23;20.07;;;;;;;-145.18;100.00;46623.28;4914886;29;20460;-81
2022/09/10 06:43:35;;;;;;;26.43;20.90;;;;;;;-145.18;100.00;46625.22;4914894;29;20035;-78
2022/09/10 06:46:04;;;;;;;25.90;20.97;;;;;;;-145.18;100.00;46619.38;4898138;29;20047;-81
2022/09/10 06:48:30;;;;;;;24.63;18.67;;;;;;;-145.18;100.00;46623.28;4914695;29;20028;-80
2022/09/10 06:51:00;;;;;;;26.50;19.87;;;;;;;-145.18;100.00;46625.22;4915217;29;20119;-80
2022/09/10 06:53:27;;;;;;;28.10;18.23;;;;;;;-145.18;100.00;46627.19;4901877;29;20104;-80
2022/09/10 06:55:54;;;;;;;26.07;17.87;;;;;;;-145.18;100.00;46629.13;4895775;29;20043;-81
2022/09/10 06:58:22;;;;;;;24.83;16.47;;;;;;;-145.18;100.00;46629.13;4903846;29;20055;-80
2022/09/10 07:00:48;;;;;;;18.90;15.70;;;;;;;-145.18;100.00;46627.19;4914580;29;20437;-80
2022/09/10 07:03:15;;;;;;;21.93;15.50;;;;;;;-145.18;100.00;46625.22;4914081;29;20054;-81
2022/09/10 07:05:41;;;;;;;25.43;14.93;;;;;;;-145.18;100.00;46625.22;4914698;29;20046;-81
2022/09/10 07:08:07;;;;;;;19.13;14.10;;;;;;;-145.18;100.00;46625.22;4905385;29;20029;-81
2022/09/10 07:10:33;;;;;;;20.40;14.63;;;;;;;-145.18;100.00;46625.22;4908838;29;20047;-80
2022/09/10 07:13:00;;;;;;;19.13;14.07;;;;;;;-145.18;100.00;46623.28;4908530;29;20397;-81
2022/09/10 07:15:26;;;;;;;18.57;12.77;;;;;;;-145.18;100.00;46627.19;4903841;29;20498;-82
2022/09/10 07:17:52;;;;;;;19.23;12.63;;;;;;;-145.18;100.00;46625.22;4903377;29;20041;-81
2022/09/10 07:20:17;;;;;;;19.13;10.63;;;;;;;-145.18;100.00;46627.19;4903486;29;20378;-79
2022/09/10 07:22:43;;;;;;;19.97;8.10;;;;;;;-145.18;100.00;46629.13;4901301;29;20032;-81
2022/09/10 07:25:08;;;;;;;11.93;6.57;;;;;;;-145.18;100.00;46627.19;4909520;29;20036;-80
2022/09/10 07:27:34;;;;;;;13.70;6.27;;;;;;;-145.18;100.00;46631.09;4913854;29;20659;-80
2022/09/10 07:29:59;;;;;;;14.30;6.00;;;;;;;-145.18;100.00;46629.13;4913290;29;20043;-80
2022/09/10 07:32:25;;;;;;;12.17;5.00;;;;;;;-145.18;100.00;46627.19;4913812;29;20041;-80
2022/09/10 07:34:51;;;;;;;10.97;5.03;;;;;;;-145.18;100.00;46633.06;4913944;29;20036;-80
2022/09/10 07:37:16;;;;;;;10.80;4.73;;;;;;;-145.18;100.00;46633.06;4914213;29;20042;-80
2022/09/10 07:39:42;;;;;;;12.50;4.70;;;;;;;-145.18;100.00;46635.00;4914291;29;20135;-81
2022/09/10 07:42:08;;;;;;;12.43;4.43;;;;;;;-145.18;100.00;46635.00;4913141;29;20040;-81
2022/09/10 07:44:33;;;;;;;10.17;4.10;;;;;;;-145.18;100.00;46636.94;4915193;29;20040;-81
2022/09/10 07:47:00;;;;;;;9.50;3.97;;;;;;;-145.18;100.00;46640.88;4916812;29;20084;-80
2022/09/10 07:49:26;;;;;;;9.17;4.47;;;;;;;-145.18;100.00;46642.81;4909439;29;20028;-80
2022/09/10 07:51:53;;;;;;;14.10;5.17;;;;;;;-145.18;100.00;46640.88;4906881;29;20028;-81
2022/09/10 07:54:18;;;;;;;13.77;5.57;;;;;;;-145.18;100.00;46642.81;4909181;29;20520;-81
2022/09/10 07:56:44;;;;;;;13.83;5.27;;;;;;;-145.18;100.00;46640.88;4910145;29;20028;-81
2022/09/10 07:59:10;;;;;;;12.83;4.83;;;;;;;-145.18;100.00;46646.72;4904380;29;20489;-81
2022/09/10 08:01:36;;;;;;;16.10;4.90;;;;;;;-145.18;100.00;46642.81;4898459;29;20060;-81
2022/09/10 08:04:02;;;;;;;8.23;4.57;;;;;;;-145.18;100.00;46642.81;4898506;29;20073;-81
2022/09/10 08:06:27;;;;;;;13.90;4.97;;;;;;;-145.18;100.00;46646.72;4898989;29;20036;-80
2022/09/10 08:08:53;;;;;;;12.40;3.53;;;;;;;-145.18;100.00;46644.78;4908621;29;20062;-82
2022/09/10 08:11:19;;;;;;;13.67;3.90;;;;;;;-145.18;100.00;46644.78;4902592;29;20508;-81
2022/09/10 08:13:50;;;;;;;12.37;3.80;;;;;;;-145.18;100.00;46646.72;4892586;29;20068;-81
2022/09/10 08:16:18;;;;;;;7.23;2.07;;;;;;;-145.18;100.00;46644.78;4906338;29;20036;-80
2022/09/10 08:18:45;;;;;;;8.73;2.40;;;;;;;-145.18;100.00;46642.81;4903579;29;20182;-80
2022/09/10 08:21:11;;;;;;;9.50;3.47;;;;;;;-145.18;100.00;46652.59;4898212;29;20032;-80
2022/09/10 08:23:38;;;;;;;10.60;4.13;;;;;;;-145.18;100.00;46644.78;4898112;29;20379;-80
2022/09/10 08:26:05;;;;;;;10.70;3.60;;;;;;;-145.18;100.00;46644.78;4899065;29;20055;-80
2022/09/10 08:28:31;;;;;;;12.93;4.23;;;;;;;-145.18;100.00;46648.69;4898001;29;20067;-80
2022/09/10 08:31:06;;;;;;;11.53;4.30;;;;;;;-145.18;100.00;46648.69;4897078;29;20033;-80
2022/09/10 08:33:32;;;;;;;11.32;4.07;;;;;;;-145.18;100.00;46646.72;4897302;29;20059;-80
2022/09/10 08:35:58;;;;;;;10.90;3.60;;;;;;;-145.18;100.00;46650.63;4911883;29;20397;-80
2022/09/10 08:38:32;;;;;;;12.00;4.50;;;;;;;-145.18;100.00;46650.63;4917098;29;20059;-80
2022/09/10 08:40:59;;;;;;;8.77;3.20;;;;;;;-145.18;100.00;46650.63;4908663;29;20111;-79
2022/09/10 08:43:40;;;;;;;9.50;2.90;;;;;;;-145.18;100.00;46650.63;4916319;29;20036;-79
2022/09/10 08:46:20;;;;;;;9.40;3.10;;;;;;;-145.18;100.00;46656.50;4910093;29;20016;-79
2022/09/10 08:48:49;;;;;;;8.03;3.17;;;;;;;-145.18;100.00;46660.41;4916250;29;20092;-79
2022/09/10 08:51:26;;;;;;;9.10;3.23;;;;;;;-145.18;100.00;46656.50;4917093;29;20084;-79
2022/09/10 08:54:06;;;;;;;9.23;3.17;;;;;;;-145.18;100.00;46666.25;4916130;29;20750;-79
2022/09/10 08:56:31;;;;;;;12.27;2.60;;;;;;;-145.18;100.00;46668.22;4916188;29;20099;-80
2022/09/10 08:59:01;;;;;;;13.60;2.87;;;;;;;-145.18;100.00;46672.13;4916073;29;20437;-80
2022/09/10 09:01:44;;;;;;;8.47;1.93;;;;;;;-145.18;100.00;46674.06;4916734;29;20036;-80
2022/09/10 09:04:21;;;;;;;7.00;2.50;;;;;;;-145.18;100.00;46672.13;4916254;29;20746;-80
2022/09/10 09:06:57;;;;;;;8.53;2.63;;;;;;;-145.18;100.00;46672.13;4917003;29;20099;-80
2022/09/10 09:09:23;;;;;;;6.50;2.07;;;;;;;-145.18;100.00;46679.94;4916408;29;20032;-80
2022/09/10 09:12:01;;;;;;;6.47;1.73;;;;;;;-145.18;100.00;46681.88;4897689;29;20095;-80
2022/09/10 09:14:48;;;;;;;13.23;2.60;;;;;;;-145.18;100.00;46681.88;4897126;29;20430;-80
2022/09/10 09:17:40;;;;;;;10.13;2.13;;;;;;;-145.18;100.00;46679.94;4891200;29;20556;-79
2022/09/10 09:20:17;;;;;;;7.77;1.97;;;;;;;-145.18;100.00;46676.03;4910826;29;20059;-79
2022/09/10 09:23:14;;;;;;;5.03;1.33;;;;;;;-145.18;100.00;46670.16;4916621;29;20064;-79
2022/09/10 09:25:50;;;;;;;4.87;1.13;;;;;;;-145.18;100.00;46670.16;4899335;29;20028;-79
2022/09/10 09:28:24;;;;;;;6.07;1.27;;;;;;;-145.18;100.00;46666.25;4915872;29;20040;-81
2022/09/10 09:30:52;;;;;;;12.27;6.43;;;;;;;-145.18;100.00;46670.16;4916036;29;20044;-80
2022/09/10 09:33:21;;;;;;;11.53;7.60;;;;;;;-145.18;100.00;46660.41;4915837;29;20036;-82
2022/09/10 09:35:53;;;;;;;14.90;9.13;;;;;;;-145.18;100.00;46662.34;4899128;29;20036;-79
2022/09/10 09:38:31;;;;;;;16.57;10.10;;;;;;;-145.18;100.00;46662.34;4904185;29;20087;-79
2022/09/10 09:40:59;;;;;;;20.90;13.30;;;;;;;-145.18;100.00;46656.50;4904733;29;20515;-80
2022/09/10 09:44:03;;;;;;;21.10;15.07;;;;;;;-145.18;100.00;46652.59;4896849;29;20062;-80
2022/09/10 09:46:29;;;;;;;29.70;18.43;;;;;;;-145.18;100.00;46652.59;4896487;29;20048;-79
2022/09/10 09:48:58;;;;;;;31.30;17.20;;;;;;;-145.18;100.00;46646.72;4895540;29;20032;-80
2022/09/10 09:51:24;;;;;;;28.83;18.47;;;;;;;-145.18;100.00;46644.78;4896962;29;20032;-80
2022/09/10 09:53:56;;;;;;;28.57;18.77;;;;;;;-145.18;100.00;46644.78;4896709;29;20060;-80
2022/09/10 09:56:29;;;;;;;29.83;19.07;;;;;;;-145.18;100.00;46652.59;4896854;29;20036;-80
2022/09/10 09:58:57;;;;;;;26.93;17.40;;;;;;;-145.18;100.00;46648.69;4898500;29;20215;-80
2022/09/10 10:01:25;;;;;;;38.97;20.47;;;;;;;-145.18;100.00;46644.78;4915205;29;20032;-80
2022/09/10 10:04:01;;;;;;;31.63;19.73;;;;;;;-145.18;100.00;46646.72;4913951;29;20112;-80
2022/09/10 10:06:45;;;;;;;36.13;21.60;;;;;;;-145.18;100.00;46646.72;4912329;29;20043;-80
2022/09/10 10:09:20;;;;;;;25.83;16.67;;;;;;;-145.18;100.00;46642.81;4896583;29;20434;-80
2022/09/10 10:11:55;;;;;;;27.57;15.77;;;;;;;-145.18;100.00;46644.78;4898185;29;20063;-80
2022/09/10 10:14:37;;;;;;;27.98;16.90;;;;;;;-145.18;100.00;46646.72;4914016;29;20032;-80
2022/09/10 10:17:21;;;;;;;25.37;16.23;;;;;;;-145.18;100.00;46644.78;4912992;29;20555;-80
2022/09/10 10:20:05;;;;;;;24.60;16.13;;;;;;;-145.18;100.00;46644.78;4915060;29;20063;-81
2022/09/10 10:22:31;;;;;;;31.10;16.73;;;;;;;-145.18;100.00;46646.72;4928118;29;20054;-81
2022/09/10 10:25:02;;;;;;;28.60;16.97;;;;;;;-145.18;100.00;46642.81;4917499;29;20493;-81
2022/09/10 10:27:44;;;;;;;25.37;18.60;;;;;;;-145.18;100.00;46648.69;4927191;29;20055;-81
2022/09/10 10:30:15;;;;;;;26.30;18.23;;;;;;;-145.18;100.00;46644.78;4933565;29;20039;-81
2022/09/10 10:33:02;;;;;;;25.77;17.40;;;;;;;-145.18;100.00;46644.78;4908417;29;20052;-80
2022/09/10 10:35:33;;;;;;;24.70;17.33;;;;;;;-145.18;100.00;46650.63;4904633;29;20074;-80
2022/09/10 10:38:24;;;;;;;18.73;14.00;;;;;;;-145.18;100.00;46650.63;4903638;29;20500;-81
2022/09/10 10:40:54;;;;;;;14.03;11.10;;;;;;;-145.18;100.00;46660.41;4908562;29;20032;-79
2022/09/10 10:43:49;;;;;;;14.13;11.00;;;;;;;-145.18;100.00;46672.13;4902032;29;20035;-79
2022/09/10 10:46:53;;;;;;;12.53;10.90;;;;;;;-145.18;100.00;46670.16;4913974;29;20024;-79
2022/09/10 10:49:48;;;;;;;14.60;10.53;;;;;;;-145.18;100.00;46674.06;4914000;29;20124;-79
2022/09/10 10:52:45;;;;;;;16.07;11.03;;;;;;;-145.18;100.00;46676.03;4914872;29;20079;-79
2022/09/10 10:55:20;;;;;;;13.07;9.70;;;;;;;-145.18;100.00;46679.94;4897252;29;20115;-79
2022/09/10 10:58:15;;;;;;;13.03;10.80;;;;;;;-145.18;100.00;46679.94;4914834;29;20036;-79
2022/09/10 11:01:18;;;;;;;28.80;10.83;;;;;;;-145.18;100.00;46676.03;4895933;29;20033;-79
2022/09/10 11:03:59;;;;;;;8.80;7.90;;;;;;;-145.18;100.00;46676.03;4892480;29;20131;-79
2022/09/10 11:06:33;;;;;;;6.17;4.53;;;;;;;-145.18;100.00;46679.94;4900313;29;20036;-79
2022/09/10 11:09:13;;;;;;;6.77;5.53;;;;;;;-145.18;100.00;46676.03;4933435;29;20038;-80
2022/09/10 11:11:56;;;;;;;6.83;6.13;;;;;;;-145.18;100.00;46681.88;4895729;29;20036;-80